Terminal Aerodrome Forecast
Issued by NWS Des Moines, IA

Home | Current Version | Previous Version | Text Only | Print | Product List | Glossary On
Versions: 1 2 3 4 5 6 7 8 9 10 11 12 13 14 15 16 17 18
000
FTUS43 KDMX 250604 AAA
TAFALO
TAF AMD
KALO 250604Z 2506/2606 VRB03KT 3SM BR FEW010
      TEMPO 2506/2510 3/4SM BR SCT005
     FM251300 08004KT P6SM BKN015
     FM251500 16005KT P6SM SCT120
     FM252300 16007KT P6SM BKN200
     FM260400 13005KT P6SM BKN120=

USA.gov is the U.S. government's official web portal to all federal, state and local government web resources and services.